Freudenstadt, Germany

2:35 PM CEST on July 03, 2015 (GMT +0200)
IBADENWR171 | | Change Station
CLOSE
Current Station
Personal Weather Station
Location: Waldachtal, BADEN-W�RTTEMBERG
Elevation: 2103 ft
Nearby Weather Stations

Elev 2103 ft 48.49 °N, 8.60 °E | Updated 14 seconds ago

Partly Cloudy
Partly Cloudy
81.1 °F
Feels Like 85 °F
N
2.0
Wind Variable Wind from WSW
Gusts 2.5 mph

Today
High -- | Low -- °F
--% Chance of Precip.
Yesterday
High -- | Low -- °F
Precip. -- in
5:29 AM 9:30 PM
Full, 97% visible
Pressure 30.24 in
Visibility 6.2 miles
Clouds Few 6200 ft
Heat Index 85 °F
Dew Point 70 °F
Humidity 69%
Rainfall 0.02 in
Snow Depth Not available.
UV 0.0 out of 12
Pollen Not available.
Air Quality Not available.
Flu Activity Not available.
METAR EDDS 031220Z VRB02KT 9999 FEW062TCU 33/16 Q1024 NOSIG

More Conditions Fewer Conditions

Pressure 30.24 in
Visibility 6.2 miles
Clouds Few 6200 ft
Heat Index 85 °F
Dew Point 70 °F
Humidity 69%
Rainfall 0.02 in
Snow Depth Not available.
UV 0.0 out of 12
Pollen Not available.
Air Quality Not available.
Flu Activity Not available.
METAR EDDS 031220Z VRB02KT 9999 FEW062TCU 33/16 Q1024 NOSIG

More Conditions Fewer Conditions

10-Day Weather Forecast

×

Almanac

Astronomy

Jul. 03, 2015 Rise Set
Actual Time
Civil Twilight
Nautical Twilight
Astronomical Twilight
Moon
Length of Visible Light
Length of Day
Tomorrow will be .
, % of the Moon is Illuminated

Today's Extremes

Country Highs Country Lows

Community

WunderPhotos

Upload Photos

1,834,656 photos uploaded!

WunderBlogs® & News

Nearby

Air Quality

  Air Quality AQ Index Pollutant
Not available.

Snow Depth

Station Depth Elevation

Earthquake Activity

City Distance Mag. Time & Date
Minimum magnitude displayed is 2.5.

Coastal Water Temperatures

Place Temperature

Stations

Nearby Weather Stations

Station Location Temp. Windchill Dew Point Humidity Wind Precip. Elev Updated Type